Time;durP1;ratioP1;P1;durP2;ratioP2;P2;SDS_P1;SDS_P2;PMS_P1;PMS_P2;Temp;Humidity;BMP_temperature;BMP_pressure;BME280_temperature;BME280_humidity;BME280_pressure;Samples;Min_cycle;Max_cycle;Signal;HPM_P1;HPM_P2
2021/05/09 06:43:35;;;;;;;1.17;1.08;;;16.40;40.10;;;;;;5050581;28;20242;-87
2021/05/09 06:46:02;;;;;;;2.03;1.00;;;16.70;38.80;;;;;;5063584;28;20221;-87
2021/05/09 06:48:28;;;;;;;1.17;1.00;;;17.00;37.40;;;;;;5054935;28;20205;-90
2021/05/09 06:50:54;;;;;;;1.20;1.10;;;17.20;37.10;;;;;;5039544;28;20284;-90
2021/05/09 06:53:21;;;;;;;0.98;0.98;;;17.40;37.00;;;;;;5062281;28;20558;-89
2021/05/09 06:55:50;;;;;;;2.25;1.10;;;17.70;36.10;;;;;;5061420;28;20227;-89
2021/05/09 06:58:18;;;;;;;1.05;0.90;;;17.70;37.20;;;;;;5062211;28;20724;-89
2021/05/09 07:00:45;;;;;;;1.30;1.20;;;17.60;35.50;;;;;;5059163;28;20558;-89
2021/05/09 07:03:11;;;;;;;1.02;0.90;;;17.50;36.70;;;;;;5056528;28;20657;-88
2021/05/09 07:05:41;;;;;;;1.05;0.90;;;17.40;36.70;;;;;;5064284;28;20229;-89
2021/05/09 07:08:08;;;;;;;1.02;0.98;;;17.30;36.80;;;;;;5046550;28;20610;-89
2021/05/09 07:10:56;;;;;;;1.05;0.95;;;17.60;36.90;;;;;;5062577;28;20542;-90
2021/05/09 07:13:52;;;;;;;1.05;0.95;;;18.00;36.00;;;;;;5057734;28;20193;-88
2021/05/09 07:16:20;;;;;;;1.42;0.73;;;18.20;35.20;;;;;;5067714;28;20691;-91
2021/05/09 07:19:32;;;;;;;1.45;1.00;;;18.10;34.80;;;;;;5059979;28;20201;-88
2021/05/09 07:25:26;;;;;;;1.25;0.95;;;18.60;34.80;;;;;;5057676;28;20232;-87
2021/05/09 07:27:52;;;;;;;3.65;0.98;;;18.80;34.30;;;;;;5064451;28;20198;-88
2021/05/09 07:30:21;;;;;;;1.35;1.10;;;18.90;34.40;;;;;;5055976;28;20308;-93
2021/05/09 07:32:48;;;;;;;1.48;1.05;;;19.30;34.10;;;;;;5059606;28;20255;-86
2021/05/09 07:35:40;;;;;;;1.42;1.00;;;19.30;33.50;;;;;;5062289;28;20222;-87
2021/05/09 07:38:20;;;;;;;2.65;1.05;;;19.40;33.40;;;;;;5062842;28;20193;-87
2021/05/09 07:40:47;;;;;;;2.60;2.40;;;19.40;33.80;;;;;;5124437;22;20213;-89
2021/05/09 07:43:13;;;;;;;1.67;1.30;;;19.30;34.20;;;;;;5039337;28;20280;-88
2021/05/09 07:45:39;;;;;;;0.93;0.88;;;19.30;35.40;;;;;;5039693;28;20250;-83
2021/05/09 07:48:08;;;;;;;1.20;1.10;;;19.40;35.30;;;;;;5046310;28;20822;-89
2021/05/09 07:50:35;;;;;;;1.42;1.20;;;19.50;34.80;;;;;;5036074;28;20244;-85
2021/05/09 07:53:01;;;;;;;1.55;1.25;;;19.50;34.70;;;;;;5037525;28;20199;-88
2021/05/09 07:55:28;;;;;;;2.05;1.27;;;19.70;34.80;;;;;;5038230;28;20253;-85
2021/05/09 07:57:55;;;;;;;2.03;1.27;;;20.10;37.90;;;;;;5038413;28;20559;-85
2021/05/09 08:00:22;;;;;;;2.08;1.10;;;20.30;34.80;;;;;;5038017;28;20252;-86
2021/05/09 08:02:49;;;;;;;1.30;1.20;;;20.30;32.30;;;;;;5041192;28;20649;-87
2021/05/09 08:05:18;;;;;;;1.83;1.20;;;20.50;33.90;;;;;;5040035;28;20221;-84
2021/05/09 08:07:50;;;;;;;1.13;1.10;;;20.40;33.00;;;;;;5036186;28;20301;-88
2021/05/09 08:10:16;;;;;;;3.13;1.20;;;20.30;33.80;;;;;;5037849;28;20280;-83
2021/05/09 08:12:43;;;;;;;3.33;1.50;;;20.50;32.90;;;;;;5037744;28;20198;-85
2021/05/09 08:15:10;;;;;;;1.10;1.00;;;20.50;34.60;;;;;;5040099;28;20644;-87
2021/05/09 08:17:37;;;;;;;1.10;1.00;;;20.70;32.60;;;;;;5043517;28;20234;-87
2021/05/09 08:20:04;;;;;;;1.60;1.10;;;20.90;32.80;;;;;;5048510;28;20278;-85
2021/05/09 08:22:32;;;;;;;1.20;1.10;;;21.20;33.10;;;;;;5048411;28;20671;-83
2021/05/09 08:24:58;;;;;;;4.80;1.05;;;21.70;33.50;;;;;;5048655;28;20222;-84
2021/05/09 08:27:28;;;;;;;1.40;1.20;;;21.80;32.20;;;;;;5048571;28;20202;-84
2021/05/09 08:29:54;;;;;;;1.17;1.02;;;21.80;33.60;;;;;;5044898;28;20257;-81
2021/05/09 08:32:21;;;;;;;2.20;1.23;;;22.10;33.10;;;;;;5045635;28;20202;-82
2021/05/09 08:34:47;;;;;;;1.70;1.48;;;22.20;32.10;;;;;;5042287;28;20208;-85
2021/05/09 08:37:14;;;;;;;1.23;1.20;;;22.60;30.70;;;;;;5046210;28;20305;-88
2021/05/09 08:39:41;;;;;;;1.67;1.38;;;23.70;30.80;;;;;;5043290;28;20255;-84
2021/05/09 08:42:08;;;;;;;1.55;1.45;;;25.20;25.90;;;;;;5044978;28;20206;-84
2021/05/09 08:44:34;;;;;;;1.58;1.48;;;27.00;22.00;;;;;;5043666;28;20239;-85
2021/05/09 08:47:03;;;;;;;1.65;1.30;;;27.50;21.60;;;;;;5043763;28;20688;-83
2021/05/09 08:49:30;;;;;;;3.65;1.40;;;28.20;19.40;;;;;;5043053;28;20245;-85
2021/05/09 08:51:58;;;;;;;1.70;1.60;;;30.70;17.00;;;;;;5044694;28;20226;-87
2021/05/09 08:54:25;;;;;;;4.35;1.63;;;31.70;15.70;;;;;;5047149;28;20210;-87
2021/05/09 08:56:52;;;;;;;2.22;1.90;;;33.80;14.30;;;;;;5051279;28;20263;-87
2021/05/09 08:59:18;;;;;;;2.22;2.13;;;33.60;12.90;;;;;;5048315;28;20224;-85
2021/05/09 09:01:45;;;;;;;2.55;2.15;;;34.20;13.00;;;;;;5047537;28;20281;-87
2021/05/09 09:04:14;;;;;;;2.42;2.17;;;36.00;10.90;;;;;;5044188;28;20195;-86
2021/05/09 09:06:45;;;;;;;4.70;2.30;;;37.00;10.50;;;;;;5043297;28;20221;-86
2021/05/09 09:09:19;;;;;;;2.70;2.50;;;36.70;8.70;;;;;;5044920;28;20226;-85
2021/05/09 09:11:50;;;;;;;2.50;2.30;;;35.80;10.70;;;;;;5046931;28;20221;-88
2021/05/09 09:14:25;;;;;;;4.10;3.70;;;35.60;9.80;;;;;;5044790;28;20201;-86
2021/05/09 09:17:08;;;;;;;2.90;2.70;;;35.80;9.90;;;;;;5047421;28;20225;-86
2021/05/09 09:19:58;;;;;;;3.00;2.80;;;36.70;8.00;;;;;;5045233;28;20206;-89
2021/05/09 09:22:25;;;;;;;3.10;2.80;;;36.70;7.70;;;;;;5043547;28;20236;-91
2021/05/09 09:25:03;;;;;;;3.20;2.97;;;37.40;8.40;;;;;;5041010;28;20312;-86
2021/05/09 09:27:29;;;;;;;2.70;2.60;;;36.40;8.00;;;;;;5037953;28;20649;-91
2021/05/09 09:30:00;;;;;;;2.70;2.50;;;35.20;9.60;;;;;;5035944;28;20229;-90
2021/05/09 09:32:27;;;;;;;4.28;2.63;;;34.30;9.10;;;;;;5032375;28;20190;-89
2021/05/09 09:34:53;;;;;;;3.20;2.58;;;33.90;10.70;;;;;;5044630;28;20273;-87
2021/05/09 09:37:21;;;;;;;2.58;2.38;;;32.40;11.10;;;;;;5046959;28;20229;-87
2021/05/09 09:39:48;;;;;;;2.70;2.50;;;33.00;11.20;;;;;;5046154;28;20210;-88
2021/05/09 09:42:16;;;;;;;2.80;2.30;;;31.60;10.60;;;;;;5042251;28;20210;-88
2021/05/09 09:44:42;;;;;;;2.78;2.63;;;31.90;10.60;;;;;;5040402;28;20221;-87
2021/05/09 09:47:10;;;;;;;7.63;6.60;;;33.80;10.30;;;;;;5036863;28;20209;-88
2021/05/09 09:49:38;;;;;;;7.68;6.97;;;34.30;9.20;;;;;;5042470;28;20194;-87
2021/05/09 09:52:06;;;;;;;3.33;3.10;;;34.40;9.20;;;;;;5049493;28;20209;-86
2021/05/09 09:54:40;;;;;;;2.55;2.38;;;34.90;7.20;;;;;;5040272;28;20202;-85
2021/05/09 09:57:08;;;;;;;2.60;2.40;;;33.90;6.90;;;;;;5034591;28;20230;-89
2021/05/09 09:59:34;;;;;;;2.60;2.50;;;34.50;7.60;;;;;;5036420;28;20202;-88
2021/05/09 10:02:05;;;;;;;2.88;2.67;;;34.80;7.20;;;;;;5035557;28;20226;-90
2021/05/09 10:04:32;;;;;;;3.22;2.92;;;35.90;5.60;;;;;;5037822;28;20206;-89
2021/05/09 10:07:04;;;;;;;3.47;2.67;;;36.90;5.60;;;;;;5026634;28;20306;-90
2021/05/09 10:09:31;;;;;;;3.15;2.60;;;34.50;6.30;;;;;;5033416;28;20202;-89
2021/05/09 10:11:57;;;;;;;3.78;3.47;;;35.90;6.60;;;;;;5029406;28;20234;-90
2021/05/09 10:14:24;;;;;;;5.35;4.72;;;33.90;8.20;;;;;;5034778;28;20200;-90
2021/05/09 10:16:51;;;;;;;2.65;2.45;;;34.20;8.00;;;;;;5036426;28;20252;-90
2021/05/09 10:19:23;;;;;;;2.80;2.60;;;34.60;7.90;;;;;;5018701;28;20206;-90
2021/05/09 10:21:51;;;;;;;2.83;2.42;;;34.00;7.00;;;;;;5033604;28;20245;-90
2021/05/09 10:24:19;;;;;;;2.60;2.40;;;33.40;8.20;;;;;;5037307;28;20210;-88
2021/05/09 10:26:54;;;;;;;4.03;2.50;;;34.60;6.20;;;;;;5015917;28;20633;-90
2021/05/09 10:29:46;;;;;;;2.33;2.13;;;34.70;5.70;;;;;;5036212;28;20225;-90
2021/05/09 10:32:46;;;;;;;2.10;2.00;;;33.00;6.80;;;;;;5034072;28;20210;-89
2021/05/09 10:35:12;;;;;;;3.15;2.10;;;33.10;7.20;;;;;;5039852;28;20251;-90
2021/05/09 10:38:01;;;;;;;2.25;2.05;;;33.30;7.40;;;;;;5034622;28;20221;-90
2021/05/09 10:40:31;;;;;;;2.13;2.03;;;33.40;5.90;;;;;;5036751;28;20727;-87
2021/05/09 10:43:36;;;;;;;1.80;1.70;;;32.50;8.30;;;;;;5034457;28;20222;-90
2021/05/09 10:46:03;;;;;;;2.63;1.90;;;33.00;5.40;;;;;;5033321;28;20295;-89
2021/05/09 10:48:34;;;;;;;2.28;2.10;;;32.90;6.50;;;;;;5037312;28;20202;-89
2021/05/09 10:51:28;;;;;;;2.75;2.00;;;32.60;7.10;;;;;;5037100;28;20221;-91
2021/05/09 10:53:57;;;;;;;2.78;2.08;;;32.80;6.80;;;;;;5031055;28;20803;-91
2021/05/09 10:56:34;;;;;;;1.70;1.60;;;31.90;7.00;;;;;;5031320;28;20229;-89
2021/05/09 10:59:00;;;;;;;1.92;1.70;;;32.30;6.20;;;;;;5029571;28;20208;-90
2021/05/09 11:01:28;;;;;;;2.38;1.70;;;31.30;6.40;;;;;;5028705;28;20738;-88
2021/05/09 11:03:59;;;;;;;2.45;2.20;;;31.10;6.90;;;;;;5032602;28;20206;-87
2021/05/09 11:06:47;;;;;;;1.58;1.38;;;31.00;7.50;;;;;;5028886;28;20326;-88
2021/05/09 11:09:32;;;;;;;2.85;2.17;;;30.70;9.20;;;;;;5032920;28;20202;-87
2021/05/09 11:12:06;;;;;;;2.53;1.40;;;29.20;12.30;;;;;;5042939;28;20229;-88
2021/05/09 11:14:37;;;;;;;1.65;1.35;;;29.20;12.50;;;;;;5031173;28;20189;-87
2021/05/09 11:17:17;;;;;;;2.00;1.50;;;28.50;12.10;;;;;;5027988;28;20217;-89
2021/05/09 11:19:49;;;;;;;1.83;1.42;;;28.60;11.70;;;;;;5029645;28;20206;-88
2021/05/09 11:22:24;;;;;;;1.63;1.30;;;28.20;13.10;;;;;;5035615;28;20194;-89
2021/05/09 11:25:00;;;;;;;1.73;1.63;;;28.00;12.10;;;;;;5030065;28;20287;-89
2021/05/09 11:27:27;;;;;;;2.17;1.92;;;27.60;13.90;;;;;;5027622;28;20193;-89
2021/05/09 11:29:54;;;;;;;1.70;1.60;;;27.60;16.30;;;;;;5030501;28;20222;-88
2021/05/09 11:32:23;;;;;;;3.85;1.70;;;27.50;12.60;;;;;;5035929;28;20222;-88
2021/05/09 11:34:51;;;;;;;1.50;1.40;;;27.60;15.00;;;;;;5031766;28;20217;-88
2021/05/09 11:37:18;;;;;;;1.75;1.65;;;27.90;13.30;;;;;;5032570;28;20733;-88
2021/05/09 11:39:45;;;;;;;3.33;1.40;;;27.80;15.50;;;;;;5023483;28;20290;-87
2021/05/09 11:42:14;;;;;;;2.30;1.38;;;27.30;12.20;;;;;;5036922;28;20676;-89
2021/05/09 11:44:43;;;;;;;1.70;1.60;;;27.20;12.80;;;;;;5033423;28;20290;-89
2021/05/09 11:47:11;;;;;;;2.95;1.52;;;27.20;13.10;;;;;;5036987;28;20611;-88
2021/05/09 11:49:39;;;;;;;1.77;1.30;;;27.40;13.40;;;;;;5030306;28;20202;-89
2021/05/09 11:52:08;;;;;;;1.55;1.20;;;27.50;13.00;;;;;;5028312;28;20716;-88
2021/05/09 11:54:35;;;;;;;2.85;2.22;;;27.30;13.20;;;;;;5034467;28;20198;-88
2021/05/09 11:57:04;;;;;;;1.92;1.20;;;27.20;13.50;;;;;;5036272;28;20653;-90
2021/05/09 11:59:36;;;;;;;1.80;1.17;;;27.50;12.40;;;;;;5036336;28;20199;-90
2021/05/09 12:02:04;;;;;;;1.58;1.17;;;27.60;11.40;;;;;;5037628;28;20268;-89
2021/05/09 12:04:31;;;;;;;1.10;1.00;;;27.40;13.90;;;;;;5036569;28;20268;-90
2021/05/09 12:07:01;;;;;;;2.30;1.15;;;27.00;12.90;;;;;;5040479;28;20261;-90
2021/05/09 12:09:29;;;;;;;1.25;1.17;;;27.10;13.80;;;;;;5040065;28;20229;-91
2021/05/09 12:11:56;;;;;;;3.63;1.30;;;26.90;15.10;;;;;;5038432;28;20218;-90
2021/05/09 12:14:23;;;;;;;1.92;1.10;;;27.00;14.50;;;;;;5043128;28;20203;-90
2021/05/09 12:16:51;;;;;;;4.28;3.88;;;26.90;12.40;;;;;;5037426;28;20272;-90
2021/05/09 12:19:17;;;;;;;1.50;1.05;;;27.30;12.80;;;;;;5043264;28;20206;-90
2021/05/09 12:21:57;;;;;;;1.50;1.40;;;27.60;12.80;;;;;;5036761;28;20264;-90
2021/05/09 12:24:24;;;;;;;1.70;1.30;;;27.50;14.20;;;;;;5039315;28;20324;-87
2021/05/09 12:26:59;;;;;;;1.13;1.02;;;27.00;13.00;;;;;;5038194;28;20238;-90
2021/05/09 12:29:26;;;;;;;2.20;1.33;;;26.70;13.30;;;;;;5034915;28;20214;-91
2021/05/09 12:31:53;;;;;;;1.23;1.13;;;27.00;13.80;;;;;;5044330;28;20943;-90
2021/05/09 12:34:26;;;;;;;2.55;2.10;;;27.30;14.30;;;;;;5034986;28;20198;-90
2021/05/09 12:37:10;;;;;;;1.42;1.33;;;27.40;13.10;;;;;;5039443;28;20254;-90
2021/05/09 12:39:37;;;;;;;2.03;1.50;;;27.20;12.80;;;;;;5042991;28;20222;-88
2021/05/09 12:42:06;;;;;;;1.10;1.10;;;27.40;15.30;;;;;;5043886;28;20657;-90
2021/05/09 12:44:32;;;;;;;1.30;1.20;;;27.50;13.50;;;;;;5043342;28;20202;-89
2021/05/09 12:46:59;;;;;;;1.30;1.20;;;27.40;14.00;;;;;;5041029;28;20222;-89
2021/05/09 12:49:29;;;;;;;1.20;1.10;;;27.40;13.90;;;;;;5043137;28;20564;-89
2021/05/09 12:52:01;;;;;;;2.42;1.30;;;27.40;14.70;;;;;;5038585;28;20222;-89
2021/05/09 12:54:38;;;;;;;1.65;1.00;;;27.10;15.20;;;;;;5040502;28;20546;-89
2021/05/09 12:57:22;;;;;;;1.17;1.08;;;26.90;13.40;;;;;;5031475;28;20272;-90
2021/05/09 12:59:52;;;;;;;2.25;2.10;;;27.20;13.80;;;;;;5035907;28;20257;-89
2021/05/09 13:02:21;;;;;;;2.42;1.30;;;27.00;15.20;;;;;;5036435;28;20601;-90
2021/05/09 13:04:51;;;;;;;2.72;1.88;;;27.30;15.30;;;;;;5042845;28;20256;-89
2021/05/09 13:07:19;;;;;;;2.00;1.80;;;27.40;15.30;;;;;;5039617;28;20206;-89
2021/05/09 13:09:47;;;;;;;2.03;1.83;;;27.20;15.20;;;;;;5045396;28;20206;-88
2021/05/09 13:12:14;;;;;;;2.35;1.73;;;27.00;15.10;;;;;;5039975;28;20205;-89
2021/05/09 13:14:42;;;;;;;1.50;1.25;;;27.10;16.00;;;;;;5037914;28;20199;-88
2021/05/09 13:17:09;;;;;;;1.55;1.45;;;27.20;15.20;;;;;;5042960;28;20285;-89
2021/05/09 13:19:38;;;;;;;3.30;1.90;;;27.40;15.30;;;;;;5043045;28;20204;-89
2021/05/09 13:22:05;;;;;;;2.78;1.42;;;26.90;15.10;;;;;;5033146;28;20218;-89
2021/05/09 13:24:31;;;;;;;1.15;1.10;;;26.80;15.00;;;;;;5038272;28;20272;-90
2021/05/09 13:26:57;;;;;;;1.30;1.20;;;26.80;15.00;;;;;;5038929;28;20623;-89
2021/05/09 13:29:24;;;;;;;1.98;1.45;;;27.10;15.20;;;;;;5041373;28;20305;-89
2021/05/09 13:31:50;;;;;;;1.45;1.10;;;26.90;15.10;;;;;;5042715;28;20256;-89
2021/05/09 13:34:17;;;;;;;1.40;1.10;;;26.60;14.90;;;;;;5039801;28;20210;-89
2021/05/09 13:36:47;;;;;;;1.60;1.50;;;26.60;15.00;;;;;;5040369;28;20231;-89
2021/05/09 13:39:14;;;;;;;2.70;2.38;;;26.60;14.90;;;;;;5043695;28;20870;-90
2021/05/09 13:41:41;;;;;;;2.42;2.20;;;26.80;15.00;;;;;;5037522;28;20234;-90
2021/05/09 13:44:07;;;;;;;4.00;3.35;;;26.80;15.00;;;;;;5038380;28;20206;-89
2021/05/09 13:46:34;;;;;;;1.73;1.50;;;26.90;15.10;;;;;;5038809;28;20241;-90
2021/05/09 13:49:00;;;;;;;3.35;1.77;;;26.90;15.10;;;;;;5040528;28;20210;-89
2021/05/09 13:51:27;;;;;;;1.58;1.48;;;26.90;16.00;;;;;;5037074;28;20689;-89
2021/05/09 13:53:55;;;;;;;2.35;1.30;;;27.00;15.10;;;;;;5037056;28;20617;-89
2021/05/09 13:56:21;;;;;;;1.55;1.40;;;27.00;15.10;;;;;;5036983;28;20242;-90
2021/05/09 13:58:51;;;;;;;1.27;1.17;;;27.10;15.20;;;;;;5036152;28;20205;-89
2021/05/09 14:01:18;;;;;;;2.78;1.60;;;27.10;15.20;;;;;;5035909;28;20222;-90
2021/05/09 14:03:44;;;;;;;3.25;1.98;;;27.10;15.20;;;;;;5031965;28;20230;-90
2021/05/09 14:06:12;;;;;;;1.60;1.27;;;27.10;15.20;;;;;;5041023;28;20228;-90
2021/05/09 14:08:39;;;;;;;1.75;1.65;;;26.90;15.10;;;;;;5035841;28;20201;-90
2021/05/09 14:11:06;;;;;;;1.95;1.70;;;26.80;15.10;;;;;;5037747;28;20229;-90
2021/05/09 14:13:34;;;;;;;1.75;1.20;;;26.90;15.10;;;;;;5036614;28;20262;-90
2021/05/09 14:16:00;;;;;;;1.85;1.40;;;26.90;15.10;;;;;;5034790;28;20218;-90
2021/05/09 14:18:27;;;;;;;2.83;1.50;;;27.00;15.10;;;;;;5037199;28;20274;-88
2021/05/09 14:20:53;;;;;;;3.28;1.30;;;27.10;15.20;;;;;;5035695;28;20230;-88
2021/05/09 14:23:19;;;;;;;1.60;1.40;;;26.80;15.00;;;;;;5038487;28;20199;-88
2021/05/09 14:25:49;;;;;;;4.22;3.75;;;26.60;15.00;;;;;;5037342;28;20313;-88
2021/05/09 14:28:17;;;;;;;3.20;1.25;;;26.70;15.00;;;;;;5038312;28;20309;-90
2021/05/09 14:30:44;;;;;;;3.50;1.30;;;26.70;15.00;;;;;;5017910;28;20387;-90
2021/05/09 14:33:10;;;;;;;2.22;1.30;;;26.80;15.00;;;;;;5046733;28;20195;-89
2021/05/09 14:35:38;;;;;;;2.50;1.55;;;26.90;15.10;;;;;;5037005;28;20288;-90
2021/05/09 14:38:04;;;;;;;1.75;1.40;;;26.90;17.00;;;;;;5043669;28;20301;-89
2021/05/09 14:40:32;;;;;;;1.52;1.42;;;26.60;18.30;;;;;;5040015;28;20301;-89
2021/05/09 14:42:58;;;;;;;5.95;1.90;;;26.60;19.00;;;;;;5040549;28;20265;-89
2021/05/09 14:45:25;;;;;;;2.00;1.58;;;26.70;19.30;;;;;;5033946;28;20230;-89
2021/05/09 14:47:52;;;;;;;1.92;1.70;;;26.70;19.00;;;;;;5038748;28;20229;-90
2021/05/09 14:50:18;;;;;;;7.18;1.58;;;26.50;20.90;;;;;;5037946;28;20222;-89
2021/05/09 14:52:45;;;;;;;4.60;1.90;;;26.50;19.70;;;;;;5035496;28;20289;-91
2021/05/09 14:55:12;;;;;;;3.13;1.55;;;26.60;19.80;;;;;;5028223;28;20223;-89
2021/05/09 14:57:40;;;;;;;3.45;1.52;;;26.20;20.90;;;;;;5034764;28;20234;-89
2021/05/09 15:00:09;;;;;;;2.13;1.63;;;26.30;20.50;;;;;;5030127;28;20261;-89
2021/05/09 15:02:37;;;;;;;2.22;1.60;;;26.40;20.80;;;;;;5033674;28;20191;-89
2021/05/09 15:05:06;;;;;;;2.70;1.70;;;26.60;20.80;;;;;;5033566;28;20226;-89
2021/05/09 15:07:33;;;;;;;3.08;1.60;;;26.60;20.20;;;;;;5033388;28;20200;-89
2021/05/09 15:10:00;;;;;;;3.17;1.70;;;26.60;19.90;;;;;;5030820;28;20620;-89
2021/05/09 15:12:26;;;;;;;3.03;1.70;;;26.60;19.70;;;;;;5032942;28;20206;-89
2021/05/09 15:14:52;;;;;;;3.53;2.08;;;26.50;20.00;;;;;;5034071;28;20209;-88
2021/05/09 15:17:19;;;;;;;2.95;1.75;;;26.50;19.80;;;;;;5030826;28;20322;-89
2021/05/09 15:19:47;;;;;;;2.55;1.50;;;26.40;19.80;;;;;;5029617;28;20199;-90
2021/05/09 15:22:13;;;;;;;3.45;1.58;;;26.40;19.10;;;;;;5033695;28;20281;-90
2021/05/09 15:24:41;;;;;;;1.67;1.58;;;26.40;20.40;;;;;;5030285;28;20199;-89
2021/05/09 15:27:08;;;;;;;1.70;1.60;;;26.40;19.60;;;;;;5026271;28;22811;-89
2021/05/09 15:29:37;;;;;;;1.80;1.70;;;26.10;20.00;;;;;;5030957;28;20272;-89
2021/05/09 15:32:04;;;;;;;2.53;1.67;;;26.20;19.80;;;;;;5034823;28;20261;-90
2021/05/09 15:34:33;;;;;;;2.15;1.42;;;26.20;19.40;;;;;;5034218;28;20286;-90
2021/05/09 15:37:03;;;;;;;1.92;1.60;;;26.10;19.70;;;;;;5038549;28;20230;-89
2021/05/09 15:39:31;;;;;;;1.55;1.42;;;26.10;19.90;;;;;;5029227;28;20713;-89
2021/05/09 15:41:58;;;;;;;1.50;1.40;;;26.20;20.00;;;;;;5034037;28;20218;-90
2021/05/09 15:44:24;;;;;;;1.73;1.63;;;26.20;20.40;;;;;;5038728;28;20217;-90
2021/05/09 15:46:51;;;;;;;1.90;1.70;;;26.10;21.50;;;;;;5035426;28;20337;-90
2021/05/09 15:49:19;;;;;;;2.55;1.55;;;26.20;21.20;;;;;;5042261;28;20214;-90
2021/05/09 15:51:45;;;;;;;4.93;1.70;;;26.10;21.90;;;;;;5034015;28;20250;-91
2021/05/09 15:54:13;;;;;;;2.40;1.98;;;26.00;21.60;;;;;;5041783;28;20202;-90
2021/05/09 15:56:40;;;;;;;1.90;1.70;;;25.90;22.10;;;;;;5034784;28;20230;-90
2021/05/09 15:59:07;;;;;;;2.58;1.50;;;25.90;22.80;;;;;;5034633;28;20202;-89
2021/05/09 16:01:33;;;;;;;3.47;1.40;;;25.90;24.20;;;;;;5044132;28;20273;-90
2021/05/09 16:04:00;;;;;;;3.10;1.75;;;25.90;23.40;;;;;;5037653;28;20203;-89
2021/05/09 16:06:26;;;;;;;3.33;1.63;;;25.70;23.50;;;;;;5015743;28;20234;-89
2021/05/09 16:08:53;;;;;;;2.00;1.80;;;25.60;23.80;;;;;;5036539;28;20251;-89
2021/05/09 16:11:20;;;;;;;1.65;1.55;;;25.40;24.70;;;;;;5038964;28;20218;-88
2021/05/09 16:13:49;;;;;;;2.03;1.52;;;25.40;24.60;;;;;;5033491;28;20207;-89
2021/05/09 16:16:16;;;;;;;2.00;1.70;;;25.30;24.60;;;;;;5042762;28;20226;-89
2021/05/09 16:18:43;;;;;;;2.45;1.90;;;25.10;24.60;;;;;;5040857;28;20764;-89
2021/05/09 16:21:09;;;;;;;4.47;2.22;;;25.10;24.90;;;;;;5032652;28;20245;-89
2021/05/09 16:23:36;;;;;;;2.78;1.85;;;25.00;25.20;;;;;;5037967;28;20692;-89
2021/05/09 16:26:02;;;;;;;2.97;1.77;;;24.90;25.30;;;;;;5037659;28;20317;-90
2021/05/09 16:28:31;;;;;;;2.20;1.65;;;24.90;24.50;;;;;;5044388;28;20239;-90
2021/05/09 16:30:57;;;;;;;1.95;1.75;;;24.90;25.10;;;;;;5038059;28;20222;-90
2021/05/09 16:33:25;;;;;;;2.97;1.83;;;24.80;24.40;;;;;;5036620;28;20198;-90
2021/05/09 16:35:51;;;;;;;2.38;1.50;;;24.80;24.90;;;;;;5018506;28;20230;-92
2021/05/09 16:38:18;;;;;;;3.25;1.60;;;24.70;25.40;;;;;;5039480;28;20229;-89
2021/05/09 16:40:45;;;;;;;3.33;1.73;;;24.70;24.80;;;;;;5022863;28;20234;-89
2021/05/09 16:43:15;;;;;;;2.28;1.80;;;24.60;25.00;;;;;;5028839;28;20277;-91
2021/05/09 16:45:43;;;;;;;2.17;1.98;;;24.40;25.30;;;;;;5025288;28;20244;-89
2021/05/09 16:48:10;;;;;;;2.25;2.05;;;24.20;25.80;;;;;;5051559;28;20203;-88
2021/05/09 16:50:38;;;;;;;4.20;1.80;;;24.20;25.40;;;;;;5037706;28;20218;-89
2021/05/09 16:53:12;;;;;;;1.77;1.67;;;24.10;25.40;;;;;;5033648;28;20324;-85
2021/05/09 16:59:13;;;;;;;3.38;1.70;;;23.90;25.60;;;;;;5039874;28;20197;-87
2021/05/09 17:01:40;;;;;;;2.08;1.70;;;23.90;25.50;;;;;;5050170;28;20283;-91
2021/05/09 17:04:06;;;;;;;3.38;1.73;;;23.90;25.50;;;;;;5039279;28;20194;-91
2021/05/09 17:06:33;;;;;;;2.28;1.90;;;23.90;26.10;;;;;;5040112;28;20218;-90
2021/05/09 17:09:01;;;;;;;1.88;1.63;;;23.80;26.30;;;;;;5042768;28;20205;-90
2021/05/09 17:14:51;;;;;;;2.83;1.90;;;23.70;26.80;;;;;;5059631;28;20180;-90
2021/05/09 17:21:11;;;;;;;2.90;1.83;;;23.60;27.60;;;;;;5060225;28;20218;-91
2021/05/09 17:27:10;;;;;;;3.63;2.00;;;23.40;28.00;;;;;;5055485;28;20252;-82
2021/05/09 17:32:08;;;;;;;2.20;2.00;;;23.30;28.70;;;;;;5023821;28;20342;-85
2021/05/09 17:34:34;;;;;;;2.70;2.10;;;23.20;29.10;;;;;;5025881;28;20211;-88
2021/05/09 17:37:36;;;;;;;3.22;1.88;;;23.10;29.00;;;;;;5023961;28;20231;-87
2021/05/09 17:40:04;;;;;;;2.53;2.00;;;23.00;29.40;;;;;;5019510;28;20688;-85
2021/05/09 17:42:30;;;;;;;2.58;1.80;;;22.90;29.70;;;;;;5030562;28;20187;-85
2021/05/09 17:45:04;;;;;;;3.80;2.08;;;22.90;30.00;;;;;;5028926;28;20199;-85
2021/05/09 17:48:08;;;;;;;3.15;2.13;;;22.80;30.00;;;;;;5023004;28;20546;-85
2021/05/09 17:50:37;;;;;;;4.18;2.15;;;22.70;30.40;;;;;;5020841;28;20238;-90
2021/05/09 17:57:10;;;;;;;2.40;2.20;;;22.50;31.00;;;;;;5026808;28;20241;-86
2021/05/09 17:59:42;;;;;;;2.47;1.85;;;22.40;31.20;;;;;;5025402;28;20211;-86
2021/05/09 18:02:30;;;;;;;4.20;2.17;;;22.30;31.80;;;;;;5023749;28;20200;-85
2021/05/09 18:04:56;;;;;;;4.43;2.05;;;22.20;33.90;;;;;;5023666;28;20197;-85
2021/05/09 18:07:23;;;;;;;4.97;2.38;;;22.00;33.70;;;;;;5026607;28;20203;-85
2021/05/09 18:09:49;;;;;;;2.55;2.25;;;21.90;33.70;;;;;;5025733;28;20198;-85
2021/05/09 18:12:28;;;;;;;3.30;2.28;;;21.70;33.50;;;;;;5025244;28;20241;-85
2021/05/09 18:14:58;;;;;;;5.80;2.40;;;21.60;33.70;;;;;;5025297;28;20235;-86
2021/05/09 18:27:18;;;;;;;4.88;2.40;;;21.10;33.60;;;;;;4983043;28;20252;-87
2021/05/09 18:29:45;;;;;;;4.03;2.17;;;21.10;33.10;;;;;;5001811;28;20220;-87
2021/05/09 18:32:12;;;;;;;4.43;2.50;;;21.10;35.10;;;;;;5007189;28;20207;-87
2021/05/09 18:34:41;;;;;;;3.33;2.60;;;20.90;36.00;;;;;;5003245;28;20276;-89
2021/05/09 18:37:07;;;;;;;7.78;3.08;;;20.70;37.30;;;;;;5000542;28;20228;-84
2021/05/09 18:39:33;;;;;;;5.88;2.88;;;20.50;38.70;;;;;;5003837;28;20295;-84
2021/05/09 19:03:16;;;;;;;5.20;3.20;;;19.60;41.40;;;;;;5002669;28;20187;-84
2021/05/09 19:05:49;;;;;;;3.88;3.00;;;19.40;43.20;;;;;;5005752;28;20219;-85
2021/05/09 19:21:58;;;;;;;6.72;3.50;;;19.10;47.20;;;;;;5025826;28;20182;-87
2021/05/09 19:24:41;;;;;;;4.28;3.35;;;19.10;46.90;;;;;;5021181;28;20199;-87
2021/05/09 19:46:29;;;;;;;4.97;2.80;;;18.40;51.40;;;;;;5065414;28;20258;-86
2021/05/09 20:13:04;;;;;;;3.80;2.90;;;18.20;47.00;;;;;;5061474;28;20190;-86
2021/05/09 20:15:30;;;;;;;2.10;1.92;;;18.20;46.10;;;;;;5068044;28;20201;-87
2021/05/09 20:17:57;;;;;;;3.88;2.15;;;18.20;41.70;;;;;;5066242;28;20249;-87
2021/05/09 20:20:26;;;;;;;2.20;2.00;;;18.20;42.20;;;;;;5066453;28;20230;-87
2021/05/09 20:22:52;;;;;;;1.98;1.77;;;18.20;39.60;;;;;;5076811;28;20201;-87
2021/05/09 20:25:19;;;;;;;3.33;1.90;;;18.30;38.30;;;;;;5086549;28;20691;-87
2021/05/09 20:27:54;;;;;;;2.17;1.85;;;18.30;38.60;;;;;;5077185;28;20217;-87
2021/05/09 20:30:23;;;;;;;2.30;1.70;;;18.30;38.80;;;;;;5068631;28;20233;-87
2021/05/09 20:32:49;;;;;;;2.22;1.80;;;18.20;38.00;;;;;;5064254;28;20269;-88
2021/05/09 20:35:32;;;;;;;2.22;1.65;;;18.20;36.90;;;;;;5046250;28;20226;-87
2021/05/09 20:37:58;;;;;;;2.10;1.90;;;18.20;36.80;;;;;;5045074;28;20222;-86
2021/05/09 20:40:27;;;;;;;2.28;1.73;;;18.20;36.10;;;;;;5048190;28;20237;-87
2021/05/09 20:42:53;;;;;;;1.90;1.70;;;18.20;36.40;;;;;;5045687;28;20191;-87
2021/05/09 20:45:21;;;;;;;2.15;1.73;;;18.20;36.00;;;;;;5045220;28;20654;-87
2021/05/09 20:47:48;;;;;;;3.72;1.60;;;18.10;36.30;;;;;;5046212;28;20199;-88
2021/05/09 20:50:15;;;;;;;2.90;1.75;;;18.00;36.70;;;;;;5064119;28;20601;-87
2021/05/09 20:52:42;;;;;;;2.60;1.67;;;18.00;35.90;;;;;;5065792;28;20197;-87
2021/05/09 20:55:09;;;;;;;2.63;1.42;;;18.00;35.80;;;;;;5049649;28;20681;-87
2021/05/09 20:57:35;;;;;;;1.40;1.30;;;18.00;35.40;;;;;;5058550;28;20229;-86
2021/05/09 21:00:02;;;;;;;2.25;1.50;;;18.00;35.00;;;;;;5063627;28;20232;-87
2021/05/09 21:02:57;;;;;;;1.88;1.42;;;18.10;33.40;;;;;;5064192;28;20256;-86
2021/05/09 21:05:24;;;;;;;1.92;1.42;;;18.10;31.60;;;;;;5064088;28;20190;-87
2021/05/09 21:11:15;;;;;;;2.80;1.40;;;18.10;30.50;;;;;;5079231;28;20200;-87
2021/05/09 21:14:30;;;;;;;4.25;1.20;;;18.30;30.70;;;;;;5084496;28;20248;-87
2021/05/09 21:16:57;;;;;;;1.85;1.23;;;18.50;30.80;;;;;;5073004;28;20309;-87
2021/05/09 21:19:42;;;;;;;4.15;1.20;;;18.50;30.80;;;;;;5066775;28;20198;-87
2021/05/09 21:22:34;;;;;;;1.75;1.20;;;18.60;30.30;;;;;;5064860;28;20723;-87
2021/05/09 21:25:02;;;;;;;2.33;1.27;;;18.80;28.30;;;;;;5064430;28;20182;-87
2021/05/09 21:27:28;;;;;;;2.53;1.05;;;18.90;31.10;;;;;;5052695;28;20218;-87
2021/05/09 21:29:55;;;;;;;2.05;1.42;;;18.90;29.90;;;;;;5044254;28;20231;-87
2021/05/09 21:32:21;;;;;;;1.92;1.35;;;19.00;29.20;;;;;;5044878;28;20211;-87
2021/05/09 21:34:49;;;;;;;3.53;1.92;;;18.90;29.10;;;;;;5044673;28;20408;-88
2021/05/09 21:37:15;;;;;;;1.75;1.20;;;18.90;30.20;;;;;;5054509;28;20225;-87
2021/05/09 21:39:42;;;;;;;3.25;1.25;;;18.90;29.60;;;;;;5069836;28;20206;-90